createdAt,value
2022-08-05T00:00:15.945Z,50.50
2022-08-05T00:02:44.200Z,50.60
2022-08-05T00:06:02.475Z,51.10
2022-08-05T00:08:20.063Z,50.50
2022-08-05T00:10:57.320Z,50.50
2022-08-05T00:13:38.495Z,50.60
2022-08-05T00:16:08.714Z,50.50
2022-08-05T00:18:37.894Z,50.50
2022-08-05T00:21:08.356Z,50.60
2022-08-05T00:23:46.681Z,50.50
2022-08-05T00:26:22.040Z,50.50
2022-08-05T00:28:50.230Z,50.60
2022-08-05T00:31:52.999Z,50.60
2022-08-05T00:34:55.987Z,50.50
2022-08-05T00:37:11.367Z,50.50
2022-08-05T00:39:57.376Z,50.50
2022-08-05T00:42:32.922Z,51.10
2022-08-05T00:45:00.888Z,50.50
2022-08-05T00:47:53.097Z,50.50
2022-08-05T00:50:16.365Z,50.50
2022-08-05T00:52:46.843Z,50.50
2022-08-05T00:55:14.947Z,50.40
2022-08-05T00:57:55.389Z,50.40
2022-08-05T01:00:27.172Z,50.40
2022-08-05T01:02:55.080Z,50.40
2022-08-05T01:05:22.892Z,50.40
2022-08-05T01:08:30.811Z,50.40
2022-08-05T01:10:52.420Z,50.40
2022-08-05T01:13:27.139Z,50.30
2022-08-05T01:16:15.557Z,50.30
2022-08-05T01:18:56.365Z,50.30
2022-08-05T01:21:37.831Z,50.30
2022-08-05T01:24:13.142Z,50.20
2022-08-05T01:26:49.088Z,50.30
2022-08-05T01:29:23.088Z,50.30
2022-08-05T01:31:51.988Z,50.20
2022-08-05T01:34:21.909Z,50.30
2022-08-05T01:36:55.960Z,50.20
2022-08-05T01:39:45.601Z,50.20
2022-08-05T01:42:16.028Z,50.10
2022-08-05T01:44:45.654Z,50.10
2022-08-05T01:47:21.990Z,50.10
2022-08-05T01:50:01.450Z,50.00
2022-08-05T01:52:30.157Z,49.90
2022-08-05T01:54:58.795Z,50.00
2022-08-05T01:58:09.945Z,50.00
2022-08-05T02:00:18.706Z,49.90
2022-08-05T02:02:53.666Z,49.90
2022-08-05T02:05:23.982Z,49.80
2022-08-05T02:08:01.118Z,49.90
2022-08-05T02:10:32.176Z,49.90
2022-08-05T02:13:16.347Z,49.90
2022-08-05T02:15:47.434Z,49.80
2022-08-05T02:18:31.053Z,49.80
2022-08-05T02:21:04.503Z,49.80
2022-08-05T02:23:35.696Z,49.80
2022-08-05T02:26:04.492Z,49.80
2022-08-05T02:28:38.427Z,49.70
2022-08-05T02:31:14.501Z,49.70
2022-08-05T02:33:45.609Z,49.70
2022-08-05T02:36:17.870Z,49.70
2022-08-05T02:38:53.564Z,49.80
2022-08-05T02:41:22.836Z,49.80
2022-08-05T02:44:06.309Z,49.80
2022-08-05T02:46:53.817Z,49.80
2022-08-05T02:49:35.554Z,49.90
2022-08-05T02:52:06.780Z,49.80
2022-08-05T02:54:36.956Z,49.80
2022-08-05T02:57:10.084Z,49.80
2022-08-05T02:59:54.009Z,49.90
2022-08-05T03:02:27.398Z,49.90
2022-08-05T03:04:55.501Z,49.90
2022-08-05T03:07:59.154Z,49.90
2022-08-05T03:10:11.309Z,49.90
2022-08-05T03:12:41.285Z,49.90
2022-08-05T03:15:12.262Z,49.90
2022-08-05T03:17:44.758Z,49.90
2022-08-05T03:20:13.477Z,50.00
2022-08-05T03:22:44.076Z,49.90
2022-08-05T03:25:32.710Z,50.00
2022-08-05T03:28:02.692Z,49.90
2022-08-05T03:30:34.055Z,50.00
2022-08-05T03:33:03.719Z,50.00
2022-08-05T03:35:33.692Z,50.00
2022-08-05T03:38:02.499Z,50.00
2022-08-05T03:40:32.110Z,50.60
2022-08-05T03:43:01.238Z,50.00
2022-08-05T03:45:29.642Z,50.10
2022-08-05T03:48:22.768Z,50.10
2022-08-05T03:50:53.644Z,50.10
2022-08-05T03:55:06.751Z,50.10
2022-08-05T03:56:26.901Z,50.10
2022-08-05T03:59:02.235Z,50.20
2022-08-05T04:01:32.308Z,50.20
2022-08-05T04:04:10.407Z,50.10
2022-08-05T04:06:38.455Z,50.10
2022-08-05T04:09:15.544Z,50.10
2022-08-05T04:11:52.570Z,50.20
2022-08-05T04:14:30.357Z,50.10
2022-08-05T04:16:59.813Z,50.20
2022-08-05T04:19:29.145Z,50.20
2022-08-05T04:22:08.788Z,50.20
2022-08-05T04:24:43.899Z,50.20
2022-08-05T04:27:13.109Z,50.30
2022-08-05T04:29:41.257Z,50.20
2022-08-05T04:32:09.182Z,50.20
2022-08-05T04:34:43.027Z,50.20
2022-08-05T04:37:11.091Z,50.20
2022-08-05T04:39:39.189Z,50.20
2022-08-05T04:42:09.061Z,50.20
2022-08-05T04:44:36.965Z,50.90
2022-08-05T04:47:09.033Z,50.20
2022-08-05T04:50:02.907Z,50.30
2022-08-05T04:52:27.964Z,50.30
2022-08-05T04:54:57.473Z,50.30
2022-08-05T04:57:29.125Z,50.20
2022-08-05T04:59:58.504Z,50.30
2022-08-05T05:02:37.045Z,50.30
2022-08-05T05:05:26.399Z,50.20
2022-08-05T05:08:01.088Z,50.30
2022-08-05T05:10:30.143Z,50.20
2022-08-05T05:12:57.920Z,50.20
2022-08-05T05:15:56.481Z,50.20
2022-08-05T05:18:13.984Z,50.20
2022-08-05T05:20:43.646Z,50.30
2022-08-05T05:23:19.887Z,50.20
2022-08-05T05:25:47.967Z,50.20
2022-08-05T05:28:15.671Z,50.20
2022-08-05T05:30:43.554Z,50.20
2022-08-05T05:33:17.855Z,50.20
2022-08-05T05:35:52.556Z,50.20
2022-08-05T05:38:22.440Z,50.20
2022-08-05T05:40:55.689Z,50.10
2022-08-05T05:43:54.398Z,50.10
2022-08-05T05:46:17.452Z,50.10
2022-08-05T05:48:47.956Z,49.90
2022-08-05T05:51:21.534Z,49.80
2022-08-05T05:53:57.996Z,49.60
2022-08-05T05:56:32.407Z,49.70
2022-08-05T05:59:03.163Z,49.70
2022-08-05T06:01:37.701Z,49.70
2022-08-05T06:04:08.016Z,49.60
2022-08-05T06:06:37.369Z,49.60
2022-08-05T06:09:09.627Z,49.50
2022-08-05T06:11:59.589Z,49.30
2022-08-05T06:14:29.919Z,49.30
2022-08-05T06:16:57.809Z,49.30
2022-08-05T06:19:33.923Z,49.30
2022-08-05T06:22:04.390Z,49.30
2022-08-05T06:24:34.768Z,49.20
2022-08-05T06:27:03.861Z,49.20
2022-08-05T06:29:46.389Z,49.20
2022-08-05T06:32:25.825Z,49.20
2022-08-05T06:34:56.740Z,49.20
2022-08-05T06:37:57.507Z,49.20
2022-08-05T06:40:17.856Z,49.10
2022-08-05T06:42:48.569Z,49.10
2022-08-05T06:45:44.120Z,49.00
2022-08-05T06:48:44.120Z,49.00
2022-08-05T06:50:56.242Z,48.90
2022-08-05T06:53:28.343Z,48.90
2022-08-05T06:55:56.913Z,49.00
2022-08-05T06:58:35.033Z,48.80
2022-08-05T07:01:05.061Z,48.80
2022-08-05T07:03:33.400Z,48.90
2022-08-05T07:06:01.880Z,48.90
2022-08-05T07:08:35.380Z,48.70
2022-08-05T07:11:04.573Z,48.70
2022-08-05T07:13:58.515Z,48.70
2022-08-05T07:17:56.776Z,49.20
2022-08-05T07:22:28.922Z,48.60
2022-08-05T07:24:59.604Z,48.70
2022-08-05T07:27:56.503Z,48.50
2022-08-05T07:30:31.736Z,48.00
2022-08-05T07:33:00.950Z,47.70
2022-08-05T07:36:04.715Z,47.30
2022-08-05T07:38:32.138Z,47.10
2022-08-05T07:41:35.007Z,47.30
2022-08-05T07:43:52.604Z,48.00
2022-08-05T07:46:25.319Z,47.40
2022-08-05T07:49:04.306Z,47.60
2022-08-05T07:51:40.777Z,47.70
2022-08-05T07:54:16.692Z,47.90
2022-08-05T07:57:02.087Z,48.20
2022-08-05T07:59:39.746Z,48.30
2022-08-05T08:02:15.207Z,48.40
2022-08-05T08:04:45.757Z,48.40
2022-08-05T08:07:13.730Z,48.50
2022-08-05T08:09:41.612Z,48.60
2022-08-05T08:12:27.253Z,48.60
2022-08-05T08:15:02.427Z,48.80
2022-08-05T08:17:31.458Z,48.80
2022-08-05T08:20:23.515Z,48.80
2022-08-05T08:22:52.034Z,48.80
2022-08-05T08:25:27.200Z,48.80
2022-08-05T08:28:18.268Z,48.90
2022-08-05T08:30:47.984Z,48.90
2022-08-05T08:33:19.099Z,49.00
2022-08-05T08:35:52.761Z,49.00
2022-08-05T08:38:35.590Z,49.10
2022-08-05T08:41:06.278Z,49.20
2022-08-05T08:45:19.238Z,49.20
2022-08-05T08:46:24.294Z,49.20
2022-08-05T08:49:07.721Z,49.20
2022-08-05T08:52:03.648Z,49.20
2022-08-05T08:54:27.908Z,49.20
2022-08-05T08:56:56.457Z,49.20
2022-08-05T08:59:27.509Z,49.20
2022-08-05T09:01:56.976Z,49.20
2022-08-05T09:04:30.471Z,49.20
2022-08-05T09:06:58.889Z,49.20
2022-08-05T09:09:34.609Z,49.30
2022-08-05T09:12:19.815Z,49.40
2022-08-05T09:14:56.509Z,49.30
2022-08-05T09:17:41.220Z,49.30
2022-08-05T09:20:11.907Z,49.40
2022-08-05T09:23:07.808Z,49.40
2022-08-05T09:26:00.818Z,49.40
2022-08-05T09:28:32.205Z,49.40
2022-08-05T09:31:22.925Z,49.30
2022-08-05T09:33:54.229Z,49.60
2022-08-05T09:36:27.729Z,49.50
2022-08-05T09:39:02.402Z,49.60
2022-08-05T09:41:33.229Z,49.50
2022-08-05T09:44:06.878Z,49.80
2022-08-05T09:46:35.909Z,50.00
2022-08-05T09:49:19.263Z,49.90
2022-08-05T09:51:49.401Z,50.00
2022-08-05T09:54:29.109Z,49.80
2022-08-05T09:57:01.278Z,49.80
2022-08-05T09:59:29.553Z,49.70
2022-08-05T10:02:04.241Z,49.60
2022-08-05T10:04:38.653Z,49.60
2022-08-05T10:07:14.266Z,49.20
2022-08-05T10:10:14.297Z,49.40
2022-08-05T10:12:49.916Z,48.60
2022-08-05T10:15:22.789Z,48.30
2022-08-05T10:18:10.978Z,48.00
2022-08-05T10:20:41.611Z,47.20
2022-08-05T10:23:34.618Z,47.80
2022-08-05T10:25:59.956Z,47.60
2022-08-05T10:28:29.258Z,47.50
2022-08-05T10:32:47.463Z,47.90
2022-08-05T10:33:54.034Z,48.50
2022-08-05T10:36:23.575Z,48.40
2022-08-05T10:38:56.327Z,48.20
2022-08-05T10:41:29.055Z,48.30
2022-08-05T10:44:17.154Z,48.60
2022-08-05T10:46:50.937Z,48.90
2022-08-05T10:49:27.625Z,49.10
2022-08-05T10:52:03.216Z,49.60
2022-08-05T10:54:56.489Z,49.80
2022-08-05T10:57:30.896Z,49.90
2022-08-05T11:00:19.760Z,50.10
2022-08-05T11:03:24.750Z,50.10
2022-08-05T11:06:15.956Z,50.40
2022-08-05T11:09:24.408Z,50.50
2022-08-05T11:12:08.023Z,50.70
2022-08-05T11:18:07.475Z,50.80
2022-08-05T11:20:39.074Z,51.20
2022-08-05T11:24:05.352Z,51.30
2022-08-05T11:26:27.998Z,51.20
2022-08-05T11:29:02.370Z,51.80
2022-08-05T11:31:58.825Z,51.60
2022-08-05T11:34:37.003Z,52.10
2022-08-05T11:38:25.978Z,52.20
2022-08-05T11:39:55.419Z,51.50
2022-08-05T11:42:28.335Z,51.30
2022-08-05T11:45:03.043Z,51.30
2022-08-05T11:47:48.932Z,51.60
2022-08-05T11:50:17.994Z,52.30
2022-08-05T11:52:48.861Z,52.20
2022-08-05T11:55:19.444Z,52.00
2022-08-05T11:58:09.877Z,52.30
2022-08-05T12:00:38.615Z,52.60
2022-08-05T12:03:29.218Z,53.10
2022-08-05T12:06:03.414Z,53.30
2022-08-05T12:08:34.486Z,53.80
2022-08-05T12:11:09.168Z,54.50
2022-08-05T12:13:48.510Z,55.10
2022-08-05T12:16:19.316Z,55.40
2022-08-05T12:18:49.593Z,55.70
2022-08-05T12:21:23.758Z,55.80
2022-08-05T12:23:58.303Z,56.50
2022-08-05T12:26:33.243Z,56.50
2022-08-05T12:29:01.343Z,57.00
2022-08-05T12:31:42.366Z,56.50
2022-08-05T12:34:20.575Z,56.10
2022-08-05T12:36:49.632Z,56.50
2022-08-05T12:39:17.634Z,56.40
2022-08-05T12:41:47.236Z,56.50
2022-08-05T12:44:32.591Z,56.90
2022-08-05T12:47:02.156Z,57.10
2022-08-05T12:50:03.937Z,56.60
2022-08-05T12:52:32.383Z,57.10
2022-08-05T12:55:03.298Z,56.50
2022-08-05T12:58:38.235Z,56.80
2022-08-05T13:02:00.691Z,56.50
2022-08-05T13:03:14.865Z,56.50
2022-08-05T13:05:42.726Z,55.70
2022-08-05T13:08:10.994Z,55.50
2022-08-05T13:10:50.264Z,55.30
2022-08-05T13:14:06.516Z,55.10
2022-08-05T13:16:15.509Z,55.00
2022-08-05T13:18:52.056Z,54.90
2022-08-05T13:21:22.612Z,54.60
2022-08-05T13:23:55.913Z,54.40
2022-08-05T13:26:30.306Z,53.20
2022-08-05T13:28:59.555Z,53.90
2022-08-05T13:32:03.094Z,54.60
2022-08-05T13:34:22.600Z,54.30
2022-08-05T13:36:53.209Z,54.90
2022-08-05T13:40:14.008Z,54.60
2022-08-05T13:42:15.124Z,54.70
2022-08-05T13:44:45.751Z,54.70
2022-08-05T13:47:21.647Z,55.40
2022-08-05T13:50:04.371Z,55.90
2022-08-05T13:52:35.676Z,55.90
2022-08-05T13:55:07.885Z,56.30
2022-08-05T13:57:50.951Z,56.10
2022-08-05T14:00:26.778Z,56.20
2022-08-05T14:02:56.287Z,55.70
2022-08-05T14:05:48.407Z,56.10
2022-08-05T14:08:19.871Z,56.00
2022-08-05T14:10:48.556Z,55.60
2022-08-05T14:13:16.411Z,55.50
2022-08-05T14:16:08.155Z,55.40
2022-08-05T14:18:33.303Z,55.10
2022-08-05T14:21:00.997Z,55.20
2022-08-05T14:23:48.717Z,55.10
2022-08-05T14:26:35.624Z,54.10
2022-08-05T14:29:04.136Z,54.20
2022-08-05T14:31:54.378Z,54.30
2022-08-05T14:34:23.610Z,54.60
2022-08-05T14:36:51.548Z,54.60
2022-08-05T14:39:23.212Z,54.60
2022-08-05T14:42:15.891Z,54.40
2022-08-05T14:44:39.058Z,53.70
2022-08-05T14:47:08.884Z,53.50
2022-08-05T14:49:58.559Z,53.90
2022-08-05T14:52:50.132Z,54.00
2022-08-05T14:55:13.916Z,54.10
2022-08-05T14:57:56.089Z,54.20
2022-08-05T15:00:28.248Z,54.70
2022-08-05T15:02:59.093Z,55.40
2022-08-05T15:05:29.973Z,54.70
2022-08-05T15:08:17.940Z,54.90
2022-08-05T15:11:02.764Z,54.50
2022-08-05T15:13:46.078Z,54.60
2022-08-05T15:16:14.367Z,54.70
2022-08-05T15:18:43.367Z,54.60
2022-08-05T15:21:14.973Z,54.80
2022-08-05T15:23:48.771Z,54.40
2022-08-05T15:26:17.421Z,53.90
2022-08-05T15:29:00.107Z,53.30
2022-08-05T15:31:34.771Z,52.60
2022-08-05T15:34:31.915Z,51.70
2022-08-05T15:36:51.961Z,51.00
2022-08-05T15:41:01.186Z,51.70
2022-08-05T15:42:28.769Z,51.90
2022-08-05T15:44:55.456Z,52.00
2022-08-05T15:47:23.635Z,52.10
2022-08-05T15:49:59.140Z,52.00
2022-08-05T15:52:51.894Z,52.10
2022-08-05T15:55:16.566Z,52.10
2022-08-05T15:57:45.095Z,51.90
2022-08-05T16:00:13.626Z,52.10
2022-08-05T16:02:44.688Z,52.40
2022-08-05T16:05:13.763Z,52.20
2022-08-05T16:07:46.228Z,52.40
2022-08-05T16:10:14.392Z,52.40
2022-08-05T16:12:42.525Z,52.50
2022-08-05T16:15:11.035Z,52.40
2022-08-05T16:17:57.380Z,52.50
2022-08-05T16:20:27.955Z,52.50
2022-08-05T16:22:55.893Z,52.50
2022-08-05T16:25:32.167Z,52.50
2022-08-05T16:28:05.899Z,52.40
2022-08-05T16:30:34.512Z,52.50
2022-08-05T16:33:03.934Z,52.30
2022-08-05T16:35:33.625Z,52.40
2022-08-05T16:38:24.421Z,52.40
2022-08-05T16:40:59.872Z,53.00
2022-08-05T16:43:30.135Z,52.30
2022-08-05T16:46:05.191Z,52.30
2022-08-05T16:48:37.426Z,52.50
2022-08-05T16:51:09.257Z,52.60
2022-08-05T16:54:06.050Z,52.40
2022-08-05T16:56:27.163Z,52.30
2022-08-05T16:58:55.195Z,52.30
2022-08-05T17:01:24.226Z,52.10
2022-08-05T17:03:52.632Z,52.10
2022-08-05T17:06:22.330Z,52.10
2022-08-05T17:08:54.311Z,52.30
2022-08-05T17:11:23.731Z,52.50
2022-08-05T17:14:00.244Z,52.50
2022-08-05T17:16:35.963Z,52.50
2022-08-05T17:19:07.583Z,52.60
2022-08-05T17:21:39.429Z,52.60
2022-08-05T17:24:30.218Z,52.70
2022-08-05T17:26:56.718Z,52.70
2022-08-05T17:29:33.665Z,52.70
2022-08-05T17:32:08.541Z,52.70
2022-08-05T17:34:39.845Z,52.70
2022-08-05T17:37:39.417Z,52.70
2022-08-05T17:39:57.497Z,52.70
2022-08-05T17:42:32.020Z,52.70
2022-08-05T17:45:05.030Z,52.70
2022-08-05T17:47:51.336Z,52.70
2022-08-05T17:50:27.758Z,52.60
2022-08-05T17:52:59.718Z,52.60
2022-08-05T17:55:38.239Z,52.50
2022-08-05T17:58:09.716Z,52.60
2022-08-05T18:00:44.446Z,52.60
2022-08-05T18:03:28.014Z,52.60
2022-08-05T18:06:04.512Z,52.60
2022-08-05T18:08:34.493Z,52.60
2022-08-05T18:11:03.193Z,52.60
2022-08-05T18:13:36.660Z,52.60
2022-08-05T18:16:13.562Z,52.50
2022-08-05T18:18:41.689Z,52.50
2022-08-05T18:21:21.069Z,52.50
2022-08-05T18:23:53.982Z,52.50
2022-08-05T18:26:22.283Z,52.50
2022-08-05T18:28:57.325Z,52.40
2022-08-05T18:31:25.118Z,52.50
2022-08-05T18:33:53.766Z,52.40
2022-08-05T18:36:27.962Z,52.40
2022-08-05T18:38:57.449Z,52.30
2022-08-05T18:41:57.002Z,52.30
2022-08-05T18:44:12.999Z,52.20
2022-08-05T18:46:41.111Z,52.30
2022-08-05T18:49:23.053Z,52.10
2022-08-05T18:52:16.126Z,52.20
2022-08-05T18:54:45.760Z,52.30
2022-08-05T18:57:15.310Z,52.20
2022-08-05T19:00:01.682Z,52.10
2022-08-05T19:02:31.265Z,52.10
2022-08-05T19:05:02.314Z,52.20
2022-08-05T19:07:47.968Z,52.20
2022-08-05T19:10:17.541Z,52.70
2022-08-05T19:12:46.229Z,52.20
2022-08-05T19:15:57.676Z,52.10
2022-08-05T19:18:09.365Z,52.10
2022-08-05T19:20:41.667Z,52.10
2022-08-05T19:24:05.011Z,52.10
2022-08-05T19:26:02.086Z,52.10
2022-08-05T19:28:30.755Z,52.10
2022-08-05T19:30:59.085Z,52.00
2022-08-05T19:33:35.715Z,52.00
2022-08-05T19:36:06.428Z,52.00
2022-08-05T19:38:35.758Z,51.90
2022-08-05T19:41:07.157Z,51.90
2022-08-05T19:44:06.729Z,51.90
2022-08-05T19:46:29.171Z,51.90
2022-08-05T19:48:57.641Z,51.90
2022-08-05T19:52:05.267Z,52.00
2022-08-05T19:54:25.490Z,52.00
2022-08-05T19:56:59.972Z,52.00
2022-08-05T19:59:54.966Z,52.00
2022-08-05T20:02:18.585Z,52.00
2022-08-05T20:04:46.471Z,52.10
2022-08-05T20:07:46.251Z,52.10
2022-08-05T20:10:11.507Z,52.10
2022-08-05T20:12:47.851Z,52.20
2022-08-05T20:15:48.927Z,52.30
2022-08-05T20:18:10.384Z,52.30
2022-08-05T20:20:55.049Z,52.30
2022-08-05T20:23:23.758Z,52.30
2022-08-05T20:26:08.780Z,52.40
2022-08-05T20:28:46.060Z,52.50
2022-08-05T20:31:16.470Z,52.60
2022-08-05T20:33:45.163Z,52.60
2022-08-05T20:36:14.381Z,52.60
2022-08-05T20:38:53.397Z,52.70
2022-08-05T20:41:24.183Z,52.70
2022-08-05T20:44:00.428Z,52.70
2022-08-05T20:46:33.316Z,52.70
2022-08-05T20:49:01.002Z,52.70
2022-08-05T20:51:30.385Z,52.70
2022-08-05T20:54:01.098Z,52.60
2022-08-05T20:56:32.957Z,52.60
2022-08-05T20:59:14.026Z,52.60
2022-08-05T21:01:47.287Z,52.50
2022-08-05T21:04:16.306Z,52.60
2022-08-05T21:06:45.532Z,52.50
2022-08-05T21:09:14.313Z,52.70
2022-08-05T21:12:09.679Z,52.70
2022-08-05T21:14:35.192Z,52.80
2022-08-05T21:17:05.187Z,52.80
2022-08-05T21:19:47.232Z,52.70
2022-08-05T21:22:18.355Z,52.80
2022-08-05T21:24:51.825Z,52.70
2022-08-05T21:27:20.697Z,52.60
2022-08-05T21:29:55.508Z,52.70
2022-08-05T21:32:23.682Z,52.70
2022-08-05T21:35:06.759Z,52.70
2022-08-05T21:37:41.245Z,52.60
2022-08-05T21:40:13.781Z,52.60
2022-08-05T21:42:45.287Z,52.50
2022-08-05T21:45:25.091Z,52.50
2022-08-05T21:47:57.134Z,52.50
2022-08-05T21:50:25.838Z,52.50
2022-08-05T21:52:53.575Z,52.50
2022-08-05T21:56:01.234Z,52.50
2022-08-05T21:58:13.907Z,52.40
2022-08-05T22:00:50.973Z,52.30
2022-08-05T22:03:20.535Z,52.30
2022-08-05T22:06:08.357Z,52.20
2022-08-05T22:08:36.144Z,52.10
2022-08-05T22:11:11.019Z,52.10
2022-08-05T22:14:32.408Z,52.00
2022-08-05T22:16:41.596Z,52.00
2022-08-05T22:19:57.413Z,51.90
2022-08-05T22:22:06.251Z,51.90
2022-08-05T22:24:53.580Z,51.80
2022-08-05T22:28:08.250Z,51.70
2022-08-05T22:30:35.443Z,51.70
2022-08-05T22:33:15.445Z,51.70
2022-08-05T22:35:48.747Z,51.60
2022-08-05T22:38:18.992Z,51.50
2022-08-05T22:40:49.853Z,51.50
2022-08-05T22:43:36.510Z,51.50
2022-08-05T22:46:12.019Z,51.50
2022-08-05T22:48:43.336Z,51.40
2022-08-05T22:51:22.499Z,51.30
2022-08-05T22:53:50.787Z,51.30
2022-08-05T22:56:30.337Z,51.30
2022-08-05T22:59:00.112Z,51.20
2022-08-05T23:02:04.630Z,51.20
2022-08-05T23:04:41.403Z,51.00
2022-08-05T23:07:09.086Z,50.90
2022-08-05T23:09:57.251Z,51.00
2022-08-05T23:12:24.701Z,50.90
2022-08-05T23:14:52.689Z,50.90
2022-08-05T23:17:34.368Z,50.80
2022-08-05T23:20:16.337Z,50.80
2022-08-05T23:22:47.329Z,50.70
2022-08-05T23:25:17.417Z,50.60
2022-08-05T23:28:03.759Z,50.60
2022-08-05T23:30:39.787Z,50.50
2022-08-05T23:33:22.604Z,50.50
2022-08-05T23:35:56.324Z,50.40
2022-08-05T23:38:25.766Z,50.30
2022-08-05T23:40:53.443Z,50.30
2022-08-05T23:43:25.408Z,50.30
2022-08-05T23:46:21.040Z,50.30
2022-08-05T23:48:59.627Z,50.50
2022-08-05T23:51:53.714Z,50.10
2022-08-05T23:54:25.134Z,50.00
2022-08-05T23:56:54.652Z,49.90
2022-08-05T23:59:23.018Z,49.90
